Time;durP1;ratioP1;P1;durP2;ratioP2;P2;SDS_P1;SDS_P2;PMS_P1;PMS_P2;Temp;Humidity;BMP_temperature;BMP_pressure;BME280_temperature;BME280_humidity;BME280_pressure;Samples;Min_cycle;Max_cycle;Signal;HPM_P1;HPM_P2
2023/04/15 00:01:28;;;;;;;0.10;0.10;;;11.60;99.90;;;;;;5075389;28;20465;-73
2023/04/15 00:03:55;;;;;;;1.02;1.02;;;11.30;99.90;;;;;;5075535;28;20020;-73
2023/04/15 00:06:21;;;;;;;0.10;0.10;;;11.00;99.90;;;;;;5073830;28;20115;-73
2023/04/15 00:08:48;;;;;;;0.00;0.00;;;11.30;99.90;;;;;;5074987;28;20358;-73
2023/04/15 00:11:14;;;;;;;1.85;1.75;;;11.40;99.90;;;;;;5073757;28;20039;-73
2023/04/15 00:13:40;;;;;;;0.63;0.63;;;11.60;99.90;;;;;;5075366;28;20036;-73
2023/04/15 00:16:07;;;;;;;0.10;0.10;;;11.70;99.90;;;;;;5073551;28;20472;-73
2023/04/15 00:18:33;;;;;;;0.10;0.10;;;11.70;99.90;;;;;;5075087;28;20024;-73
2023/04/15 00:20:59;;;;;;;0.10;0.10;;;11.50;99.90;;;;;;5074668;28;20507;-73
2023/04/15 00:23:25;;;;;;;0.10;0.10;;;11.40;99.90;;;;;;5074897;28;20021;-73
2023/04/15 00:25:51;;;;;;;0.15;0.15;;;11.40;99.90;;;;;;5074943;28;20020;-73
2023/04/15 00:28:17;;;;;;;0.00;0.00;;;11.60;99.90;;;;;;5074832;28;20526;-73
2023/04/15 00:30:43;;;;;;;0.10;0.10;;;11.70;99.90;;;;;;5056685;28;20074;-73
2023/04/15 00:33:09;;;;;;;0.10;0.10;;;11.70;99.90;;;;;;5074928;28;20028;-73
2023/04/15 00:35:36;;;;;;;0.00;0.00;;;11.80;99.90;;;;;;5073063;28;20107;-73
2023/04/15 00:38:04;;;;;;;3.00;1.85;;;11.50;99.90;;;;;;5074773;28;20025;-73
2023/04/15 00:40:30;;;;;;;0.25;0.25;;;11.10;99.90;;;;;;5074066;28;20048;-73
2023/04/15 00:42:56;;;;;;;0.10;0.10;;;11.20;99.90;;;;;;5066102;28;20031;-73
2023/04/15 00:45:22;;;;;;;0.10;0.10;;;11.10;99.90;;;;;;5073449;28;20024;-73
2023/04/15 00:47:50;;;;;;;0.10;0.10;;;10.90;99.90;;;;;;5056265;28;20029;-73
2023/04/15 00:50:15;;;;;;;1.23;0.47;;;11.00;99.90;;;;;;5074153;28;20019;-73
2023/04/15 00:52:41;;;;;;;0.10;0.10;;;11.10;99.90;;;;;;5074399;28;20415;-73
2023/04/15 00:55:08;;;;;;;0.00;0.00;;;11.20;99.90;;;;;;5074624;28;20033;-73
2023/04/15 00:57:35;;;;;;;0.17;0.17;;;11.00;99.90;;;;;;5074189;28;20027;-73
2023/04/15 01:00:01;;;;;;;0.43;0.43;;;11.20;99.90;;;;;;5063614;28;20381;-73
2023/04/15 01:02:27;;;;;;;0.10;0.10;;;10.90;99.90;;;;;;5072764;28;20028;-73
2023/04/15 01:04:53;;;;;;;0.10;0.10;;;10.80;99.90;;;;;;5074041;28;20098;-73
2023/04/15 01:07:19;;;;;;;0.10;0.10;;;11.00;99.90;;;;;;5074022;28;20489;-72
2023/04/15 01:09:45;;;;;;;0.05;0.05;;;11.00;99.90;;;;;;5074438;28;20109;-73
2023/04/15 01:12:15;;;;;;;2.40;0.45;;;10.90;99.90;;;;;;5072898;28;20048;-72
2023/04/15 01:14:41;;;;;;;0.00;0.00;;;10.50;99.90;;;;;;5072588;28;20039;-72
2023/04/15 01:17:08;;;;;;;0.10;0.10;;;10.40;99.90;;;;;;5073789;28;20027;-73
2023/04/15 01:19:35;;;;;;;0.10;0.10;;;10.80;99.90;;;;;;5055524;28;20036;-73
2023/04/15 01:22:02;;;;;;;0.10;0.10;;;11.00;99.90;;;;;;5072613;28;20028;-72
2023/04/15 01:24:30;;;;;;;0.10;0.10;;;11.10;99.90;;;;;;5072266;28;20033;-73
2023/04/15 01:26:57;;;;;;;2.35;2.10;;;11.20;99.90;;;;;;5072063;28;20028;-73
2023/04/15 01:29:23;;;;;;;0.20;0.20;;;11.20;99.90;;;;;;5072708;28;20381;-72
2023/04/15 01:31:51;;;;;;;0.43;0.43;;;11.00;99.90;;;;;;5055675;28;20033;-72
2023/04/15 01:34:18;;;;;;;3.50;1.38;;;10.70;99.90;;;;;;5072065;28;20020;-73
2023/04/15 01:36:44;;;;;;;2.10;0.70;;;10.40;99.90;;;;;;5073346;28;20035;-73
2023/04/15 01:39:10;;;;;;;0.13;0.13;;;10.30;99.90;;;;;;5073393;28;20040;-73
2023/04/15 01:41:35;;;;;;;1.00;0.90;;;10.20;99.90;;;;;;5073433;28;20032;-74
2023/04/15 01:44:01;;;;;;;4.40;2.97;;;10.40;99.90;;;;;;5073543;28;20085;-74
2023/04/15 01:46:27;;;;;;;0.10;0.10;;;10.40;99.90;;;;;;5072276;28;20033;-73
2023/04/15 01:48:53;;;;;;;1.13;1.08;;;10.60;99.90;;;;;;5072646;28;20024;-73
2023/04/15 01:51:19;;;;;;;0.10;0.10;;;10.50;99.90;;;;;;5073506;28;20067;-74
2023/04/15 01:53:45;;;;;;;0.20;0.20;;;10.50;99.90;;;;;;5071930;28;20380;-74
2023/04/15 01:56:11;;;;;;;0.10;0.10;;;10.50;99.90;;;;;;5071950;28;20489;-74
2023/04/15 01:58:37;;;;;;;0.20;0.20;;;10.60;99.90;;;;;;5071650;28;20048;-73
2023/04/15 02:01:03;;;;;;;0.10;0.10;;;10.60;99.90;;;;;;5071787;28;20120;-74
2023/04/15 02:03:31;;;;;;;1.45;1.35;;;10.90;99.90;;;;;;5071397;28;20033;-74
2023/04/15 02:05:57;;;;;;;0.10;0.10;;;11.10;99.90;;;;;;5071829;28;20048;-73
2023/04/15 02:08:23;;;;;;;0.10;0.10;;;11.30;99.90;;;;;;5072979;28;20036;-74
2023/04/15 02:10:49;;;;;;;2.20;1.77;;;11.30;99.90;;;;;;5054302;28;20074;-74
2023/04/15 02:13:15;;;;;;;0.10;0.10;;;11.10;99.90;;;;;;5071799;28;20032;-73
2023/04/15 02:15:47;;;;;;;0.10;0.10;;;11.00;99.90;;;;;;5071646;28;20039;-73
2023/04/15 02:18:13;;;;;;;0.60;0.60;;;10.80;99.90;;;;;;5071448;28;20116;-74
2023/04/15 02:20:39;;;;;;;0.10;0.10;;;10.60;99.90;;;;;;5071266;28;20036;-73
2023/04/15 02:23:06;;;;;;;0.10;0.10;;;10.60;99.90;;;;;;5073094;28;20433;-73
2023/04/15 02:25:32;;;;;;;0.85;0.80;;;10.40;99.90;;;;;;5072934;28;20495;-73
2023/04/15 02:27:57;;;;;;;0.10;0.10;;;10.40;99.90;;;;;;5071673;28;20016;-73
2023/04/15 02:30:24;;;;;;;0.20;0.20;;;10.50;99.90;;;;;;5071723;28;20461;-73
2023/04/15 02:32:50;;;;;;;0.20;0.20;;;10.70;99.90;;;;;;5072183;28;20031;-73
2023/04/15 02:35:18;;;;;;;0.90;0.90;;;10.80;99.90;;;;;;5071488;28;20024;-73
2023/04/15 02:37:44;;;;;;;0.08;0.08;;;10.70;99.90;;;;;;5071382;28;20025;-73
2023/04/15 02:40:12;;;;;;;1.80;1.08;;;10.30;99.90;;;;;;5072319;28;20037;-73
2023/04/15 02:42:39;;;;;;;0.10;0.10;;;10.60;99.90;;;;;;5071474;28;20025;-74
2023/04/15 02:45:08;;;;;;;0.10;0.10;;;10.80;99.90;;;;;;5071305;28;20052;-74
2023/04/15 02:47:35;;;;;;;0.80;0.80;;;10.90;99.90;;;;;;5071013;28;20429;-73
2023/04/15 02:50:02;;;;;;;0.55;0.55;;;11.10;99.90;;;;;;5070961;28;20104;-73
2023/04/15 02:52:30;;;;;;;0.10;0.10;;;11.00;99.90;;;;;;5071274;28;20027;-74
2023/04/15 02:54:59;;;;;;;0.10;0.10;;;11.10;99.90;;;;;;5071281;28;20056;-73
2023/04/15 02:57:27;;;;;;;0.10;0.10;;;11.20;99.90;;;;;;5054597;28;20104;-73
2023/04/15 02:59:55;;;;;;;0.10;0.10;;;11.00;99.90;;;;;;5071026;28;20036;-73
2023/04/15 03:02:21;;;;;;;0.03;0.03;;;10.90;99.90;;;;;;5054386;28;20417;-73
2023/04/15 03:04:47;;;;;;;0.17;0.17;;;10.90;99.90;;;;;;5087827;28;20029;-73
2023/04/15 03:07:16;;;;;;;0.20;0.20;;;10.70;99.90;;;;;;5072500;28;20036;-74
2023/04/15 03:09:42;;;;;;;0.20;0.20;;;10.80;99.90;;;;;;5072211;28;20554;-73
2023/04/15 03:12:08;;;;;;;0.10;0.10;;;10.80;99.90;;;;;;5072334;28;20033;-73
2023/04/15 03:14:34;;;;;;;0.10;0.10;;;10.90;99.90;;;;;;5070939;28;20021;-73
2023/04/15 03:17:00;;;;;;;14.70;0.75;;;11.00;99.90;;;;;;5070631;28;20031;-73
2023/04/15 03:19:25;;;;;;;1.10;0.50;;;10.70;99.90;;;;;;5070797;28;20040;-73
2023/04/15 03:21:51;;;;;;;0.88;0.57;;;10.40;99.90;;;;;;5073293;28;20029;-73
2023/04/15 03:24:19;;;;;;;0.52;0.52;;;10.50;99.90;;;;;;5074809;28;20023;-73
2023/04/15 03:26:45;;;;;;;0.10;0.10;;;10.40;99.90;;;;;;5074940;28;20035;-73
2023/04/15 03:29:14;;;;;;;1.23;1.08;;;10.20;99.90;;;;;;5074391;28;20029;-73
2023/04/15 03:31:41;;;;;;;0.10;0.10;;;10.20;99.90;;;;;;5076043;28;20028;-73
2023/04/15 03:34:06;;;;;;;0.30;0.30;;;10.10;99.90;;;;;;5108429;28;20052;-73
2023/04/15 03:36:32;;;;;;;0.52;0.43;;;10.20;99.90;;;;;;5074619;28;20446;-73
2023/04/15 03:38:58;;;;;;;0.20;0.20;;;10.40;99.90;;;;;;5075513;28;20037;-73
2023/04/15 03:41:24;;;;;;;0.10;0.10;;;10.40;99.90;;;;;;5074297;28;20419;-73
2023/04/15 03:43:52;;;;;;;0.10;0.10;;;10.50;99.90;;;;;;5074452;28;20036;-73
2023/04/15 03:46:18;;;;;;;0.10;0.10;;;10.50;99.90;;;;;;5075274;28;20039;-73
2023/04/15 03:48:44;;;;;;;0.10;0.10;;;10.60;99.90;;;;;;5075242;28;20452;-73
2023/04/15 03:51:10;;;;;;;0.20;0.20;;;10.50;99.90;;;;;;5074396;28;20034;-73
2023/04/15 03:53:36;;;;;;;0.10;0.10;;;10.60;99.90;;;;;;5075417;28;20081;-73
2023/04/15 03:56:01;;;;;;;0.30;0.30;;;10.70;99.90;;;;;;5074288;28;20107;-73
2023/04/15 03:58:27;;;;;;;0.10;0.10;;;10.20;99.90;;;;;;5075321;28;20502;-73
2023/04/15 04:00:53;;;;;;;0.10;0.10;;;9.90;99.90;;;;;;5075036;28;20489;-73
2023/04/15 04:03:19;;;;;;;0.10;0.10;;;10.20;99.90;;;;;;5075343;28;20068;-73
2023/04/15 04:05:46;;;;;;;0.10;0.10;;;10.20;99.90;;;;;;5074984;28;20032;-73
2023/04/15 04:08:15;;;;;;;7.40;1.88;;;10.20;99.90;;;;;;5074137;28;20456;-73
2023/04/15 04:10:41;;;;;;;0.10;0.10;;;10.20;99.90;;;;;;5075065;28;20036;-73
2023/04/15 04:13:07;;;;;;;3.72;1.55;;;10.20;99.90;;;;;;5075236;28;20035;-73
2023/04/15 04:15:33;;;;;;;0.08;0.08;;;10.30;99.90;;;;;;5074872;28;20028;-73
2023/04/15 04:17:58;;;;;;;0.10;0.10;;;10.40;99.90;;;;;;5075052;28;20125;-73
2023/04/15 04:20:24;;;;;;;0.10;0.10;;;10.40;99.90;;;;;;5075232;28;20117;-74
2023/04/15 04:22:50;;;;;;;0.10;0.10;;;10.50;99.90;;;;;;5074066;28;20012;-74
2023/04/15 04:25:16;;;;;;;0.20;0.20;;;10.60;99.90;;;;;;5073939;28;20038;-74
2023/04/15 04:27:42;;;;;;;0.10;0.10;;;10.60;99.90;;;;;;5074634;28;20107;-73
2023/04/15 04:30:08;;;;;;;0.20;0.20;;;10.40;99.90;;;;;;5075112;28;20028;-73
2023/04/15 04:32:34;;;;;;;2.67;0.93;;;10.40;99.90;;;;;;5074306;28;20053;-73
2023/04/15 04:35:00;;;;;;;0.20;0.20;;;10.40;99.90;;;;;;5074832;28;20056;-73
2023/04/15 04:37:26;;;;;;;0.10;0.10;;;10.30;99.90;;;;;;5073611;28;20020;-73
2023/04/15 04:39:51;;;;;;;1.02;0.57;;;10.20;99.90;;;;;;5074213;28;20098;-73
2023/04/15 04:42:17;;;;;;;1.05;1.05;;;10.10;99.90;;;;;;5074525;28;20020;-73
2023/04/15 04:44:43;;;;;;;0.10;0.10;;;10.00;99.90;;;;;;5074458;28;20037;-73
2023/04/15 04:47:09;;;;;;;0.05;0.05;;;10.30;99.90;;;;;;5074464;28;20024;-73
2023/04/15 04:49:35;;;;;;;0.10;0.10;;;10.40;99.90;;;;;;5072863;28;20040;-73
2023/04/15 04:52:01;;;;;;;0.10;0.10;;;10.70;99.90;;;;;;5074350;28;20036;-73
2023/04/15 04:54:27;;;;;;;0.15;0.15;;;10.70;99.90;;;;;;5074568;28;20457;-73
2023/04/15 04:56:53;;;;;;;0.10;0.10;;;10.60;99.90;;;;;;5073827;28;20146;-73
2023/04/15 04:59:18;;;;;;;0.32;0.32;;;10.70;99.90;;;;;;5073837;28;20036;-73
2023/04/15 05:01:44;;;;;;;0.08;0.08;;;10.60;99.90;;;;;;5074018;28;20028;-73
2023/04/15 05:04:10;;;;;;;0.10;0.10;;;10.60;99.90;;;;;;5074198;28;20016;-73
2023/04/15 05:06:36;;;;;;;0.28;0.28;;;10.80;99.90;;;;;;5074079;28;20044;-73
2023/04/15 05:09:02;;;;;;;0.13;0.13;;;10.80;99.90;;;;;;5073905;28;20032;-73
2023/04/15 05:11:28;;;;;;;0.10;0.10;;;10.60;99.90;;;;;;5072415;28;20473;-73
2023/04/15 05:13:54;;;;;;;0.10;0.10;;;10.50;99.90;;;;;;5072518;28;20036;-73
2023/04/15 05:16:20;;;;;;;0.10;0.10;;;10.60;99.90;;;;;;5073901;28;20017;-73
2023/04/15 05:18:46;;;;;;;0.10;0.10;;;10.50;99.90;;;;;;5073942;28;20035;-74
2023/04/15 05:21:11;;;;;;;0.10;0.10;;;10.50;99.90;;;;;;5072581;28;20029;-73
2023/04/15 05:23:38;;;;;;;0.00;0.00;;;10.60;99.90;;;;;;5073766;28;20437;-73
2023/04/15 05:26:03;;;;;;;4.68;4.28;;;10.70;99.90;;;;;;5073424;28;20100;-73
2023/04/15 05:28:29;;;;;;;0.10;0.10;;;10.80;99.90;;;;;;5073492;28;20052;-73
2023/04/15 05:30:55;;;;;;;1.23;0.35;;;10.90;99.90;;;;;;5073545;28;20024;-73
2023/04/15 05:33:22;;;;;;;0.32;0.30;;;10.90;99.90;;;;;;5062663;28;20033;-73
2023/04/15 05:35:47;;;;;;;0.22;0.22;;;11.10;99.90;;;;;;5072373;28;20036;-73
2023/04/15 05:38:13;;;;;;;0.10;0.10;;;11.00;99.90;;;;;;5073510;28;20033;-73
2023/04/15 05:40:39;;;;;;;0.10;0.10;;;11.00;99.90;;;;;;5071718;28;20040;-73
2023/04/15 05:43:05;;;;;;;0.10;0.10;;;11.00;99.90;;;;;;5071130;28;20020;-73
2023/04/15 05:45:30;;;;;;;0.10;0.10;;;10.90;99.90;;;;;;5059182;28;20403;-73
2023/04/15 05:47:56;;;;;;;0.20;0.20;;;10.90;99.90;;;;;;5054234;28;20029;-73
2023/04/15 05:50:22;;;;;;;0.17;0.17;;;10.60;99.90;;;;;;5057205;28;20079;-73
2023/04/15 05:52:47;;;;;;;0.20;0.20;;;10.60;99.90;;;;;;5070591;28;20020;-73
2023/04/15 05:55:13;;;;;;;0.40;0.40;;;10.60;99.90;;;;;;5058571;28;20055;-73
2023/04/15 05:57:39;;;;;;;0.13;0.13;;;10.60;99.90;;;;;;5053548;28;20115;-73
2023/04/15 06:00:06;;;;;;;0.10;0.10;;;10.70;99.90;;;;;;5054135;28;20154;-73
2023/04/15 06:02:35;;;;;;;0.32;0.32;;;10.80;99.90;;;;;;5065266;28;20033;-73
2023/04/15 06:05:01;;;;;;;0.10;0.10;;;10.60;99.90;;;;;;5061287;28;20024;-72
2023/04/15 06:07:26;;;;;;;2.28;1.58;;;10.60;99.90;;;;;;5053552;28;20033;-75
2023/04/15 06:09:52;;;;;;;0.57;0.57;;;10.70;99.90;;;;;;5052596;28;20033;-73
2023/04/15 06:12:18;;;;;;;0.80;0.45;;;10.80;99.90;;;;;;5053675;28;20120;-73
2023/04/15 06:14:44;;;;;;;1.27;0.65;;;10.90;99.90;;;;;;5059379;28;20507;-73
2023/04/15 06:17:10;;;;;;;3.70;2.17;;;11.00;99.90;;;;;;5059595;28;20113;-73
2023/04/15 06:19:35;;;;;;;2.05;1.90;;;10.70;99.90;;;;;;5053453;28;20075;-73
2023/04/15 06:22:02;;;;;;;1.13;1.13;;;10.80;99.90;;;;;;5054827;28;20477;-73
2023/04/15 06:24:28;;;;;;;2.83;1.98;;;10.60;99.90;;;;;;5053605;28;20017;-73
2023/04/15 06:26:54;;;;;;;1.10;0.52;;;10.50;99.90;;;;;;5064137;28;20111;-73
2023/04/15 06:29:20;;;;;;;2.08;1.48;;;10.60;99.90;;;;;;5055936;28;20170;-73
2023/04/15 06:31:48;;;;;;;3.00;0.45;;;10.50;99.90;;;;;;5053408;28;20579;-73
2023/04/15 06:34:14;;;;;;;0.93;0.93;;;10.40;99.90;;;;;;5053587;28;20037;-73
2023/04/15 06:36:39;;;;;;;0.10;0.10;;;10.50;99.90;;;;;;5061049;28;20020;-73
2023/04/15 06:39:05;;;;;;;0.10;0.10;;;10.50;99.90;;;;;;5052670;28;20029;-72
2023/04/15 06:41:31;;;;;;;0.10;0.10;;;10.60;99.90;;;;;;5056375;28;20524;-72
2023/04/15 06:43:57;;;;;;;0.10;0.10;;;10.70;99.90;;;;;;5043966;28;20022;-73
2023/04/15 06:46:22;;;;;;;0.17;0.17;;;11.00;99.90;;;;;;5050438;28;20462;-72
2023/04/15 06:48:48;;;;;;;0.85;0.82;;;11.00;99.90;;;;;;5071421;28;20108;-72
2023/04/15 06:51:14;;;;;;;0.08;0.08;;;11.20;99.90;;;;;;5061716;28;20023;-73
2023/04/15 06:53:41;;;;;;;0.63;0.40;;;11.10;99.90;;;;;;5071079;28;20039;-72
2023/04/15 06:56:10;;;;;;;0.40;0.40;;;10.80;99.90;;;;;;5071804;28;20032;-73
2023/04/15 06:58:36;;;;;;;2.10;0.93;;;10.90;99.90;;;;;;5075460;28;20426;-73
2023/04/15 07:01:02;;;;;;;0.10;0.10;;;11.00;99.90;;;;;;5075804;28;20496;-73
2023/04/15 07:03:28;;;;;;;0.10;0.10;;;11.10;99.90;;;;;;5076190;28;20044;-73
2023/04/15 07:05:53;;;;;;;5.25;0.73;;;11.20;99.90;;;;;;5075796;28;20079;-74
2023/04/15 07:08:19;;;;;;;0.52;0.50;;;11.40;99.90;;;;;;5073818;28;20032;-73
2023/04/15 07:10:46;;;;;;;0.10;0.10;;;11.70;99.90;;;;;;5075426;28;20016;-73
2023/04/15 07:13:12;;;;;;;0.20;0.20;;;11.80;99.90;;;;;;5071406;28;20044;-73
2023/04/15 07:15:38;;;;;;;2.22;1.88;;;11.80;99.90;;;;;;5070533;28;20028;-73
2023/04/15 07:18:04;;;;;;;4.32;2.33;;;11.80;99.90;;;;;;5070000;28;20044;-73
2023/04/15 07:20:30;;;;;;;1.67;1.13;;;11.70;99.90;;;;;;5075301;28;20032;-73
2023/04/15 07:22:56;;;;;;;1.15;0.88;;;11.80;99.90;;;;;;5073682;28;20028;-73
2023/04/15 07:25:22;;;;;;;0.20;0.20;;;11.90;99.90;;;;;;5075275;28;20028;-73
2023/04/15 07:27:47;;;;;;;0.30;0.30;;;12.30;99.90;;;;;;5075087;28;20487;-74
2023/04/15 07:30:13;;;;;;;0.10;0.10;;;12.40;99.90;;;;;;5075153;28;20037;-74
2023/04/15 07:32:39;;;;;;;2.05;1.08;;;12.50;99.90;;;;;;5075078;28;20032;-73
2023/04/15 07:35:06;;;;;;;0.22;0.22;;;12.60;99.90;;;;;;5075167;28;20431;-73
2023/04/15 07:37:32;;;;;;;0.68;0.68;;;12.50;99.90;;;;;;5075020;28;20021;-74
2023/04/15 07:39:58;;;;;;;0.47;0.47;;;12.50;99.90;;;;;;5074581;28;20083;-73
2023/04/15 07:42:24;;;;;;;0.32;0.32;;;12.60;99.90;;;;;;5074881;28;20027;-73
2023/04/15 07:44:50;;;;;;;0.63;0.63;;;12.60;99.90;;;;;;5061888;28;20059;-73
2023/04/15 07:47:16;;;;;;;0.50;0.50;;;12.80;99.90;;;;;;5074984;28;20081;-74
2023/04/15 07:49:43;;;;;;;0.20;0.20;;;13.00;99.90;;;;;;5073413;28;20040;-73
2023/04/15 07:52:09;;;;;;;0.13;0.13;;;13.20;99.90;;;;;;5074604;28;20037;-73
2023/04/15 07:54:34;;;;;;;0.03;0.03;;;13.20;99.90;;;;;;5073726;28;20074;-73
2023/04/15 07:57:00;;;;;;;0.50;0.35;;;13.40;99.90;;;;;;5068275;28;20108;-73
2023/04/15 07:59:28;;;;;;;0.43;0.43;;;13.70;99.90;;;;;;5054624;28;20045;-74
2023/04/15 08:01:54;;;;;;;0.20;0.20;;;13.80;99.90;;;;;;5062202;28;20028;-73
2023/04/15 08:04:20;;;;;;;0.52;0.52;;;13.90;99.90;;;;;;5061538;28;20386;-73
2023/04/15 08:06:47;;;;;;;8.27;0.98;;;14.00;99.90;;;;;;5061546;28;20089;-73
2023/04/15 08:09:12;;;;;;;0.43;0.43;;;14.20;99.90;;;;;;5058336;28;20029;-73
2023/04/15 08:11:38;;;;;;;1.02;1.00;;;14.10;99.90;;;;;;5055823;28;20036;-73
2023/04/15 08:14:04;;;;;;;1.08;0.73;;;14.20;99.90;;;;;;5057469;28;20028;-73
2023/04/15 08:16:30;;;;;;;1.52;0.60;;;14.40;99.90;;;;;;5061124;28;20178;-73
2023/04/15 08:18:56;;;;;;;0.10;0.10;;;14.50;99.90;;;;;;5059131;28;20551;-73
2023/04/15 08:21:22;;;;;;;3.72;2.90;;;14.80;99.90;;;;;;5056893;28;20064;-73
2023/04/15 08:23:51;;;;;;;0.52;0.52;;;14.80;99.90;;;;;;5059481;28;20017;-73
2023/04/15 08:26:18;;;;;;;0.13;0.13;;;15.20;99.90;;;;;;5060568;28;20049;-73
2023/04/15 08:28:45;;;;;;;1.88;1.55;;;15.50;99.90;;;;;;5057226;28;20036;-74
2023/04/15 08:31:11;;;;;;;1.13;1.02;;;15.40;99.90;;;;;;5058070;28;20104;-75
2023/04/15 08:33:37;;;;;;;0.93;0.75;;;15.50;99.90;;;;;;5054647;28;20117;-75
2023/04/15 08:36:03;;;;;;;1.20;1.10;;;15.40;99.80;;;;;;5061259;28;20448;-74
2023/04/15 08:38:29;;;;;;;1.42;1.27;;;15.20;99.90;;;;;;5060794;28;20623;-74
2023/04/15 08:40:59;;;;;;;2.45;2.25;;;14.90;99.90;;;;;;5054967;28;20060;-73
2023/04/15 08:43:31;;;;;;;1.25;0.95;;;15.00;99.90;;;;;;5057404;28;20097;-73
2023/04/15 08:45:59;;;;;;;1.45;0.80;;;15.20;99.90;;;;;;5053860;28;20048;-73
2023/04/15 08:48:27;;;;;;;0.30;0.30;;;15.50;99.90;;;;;;5066620;28;20021;-73
2023/04/15 08:50:53;;;;;;;0.10;0.10;;;15.60;99.00;;;;;;5068645;28;20036;-73
2023/04/15 08:53:20;;;;;;;0.10;0.10;;;16.10;98.70;;;;;;5055529;28;20024;-73
2023/04/15 08:55:50;;;;;;;4.07;1.70;;;16.40;98.00;;;;;;5054063;28;20536;-72
2023/04/15 08:58:17;;;;;;;9.90;1.83;;;16.30;98.30;;;;;;5057111;28;20040;-72
2023/04/15 09:00:44;;;;;;;0.95;0.73;;;16.20;99.50;;;;;;5058734;28;20044;-72
2023/04/15 09:03:10;;;;;;;0.65;0.65;;;16.20;97.60;;;;;;5059928;28;20071;-73
2023/04/15 09:05:37;;;;;;;1.27;0.95;;;16.40;97.60;;;;;;5055574;28;20795;-73
2023/04/15 09:08:04;;;;;;;0.30;0.30;;;16.70;96.60;;;;;;5059613;28;20082;-73
2023/04/15 09:10:31;;;;;;;0.38;0.22;;;16.80;95.80;;;;;;5058088;28;20086;-73
2023/04/15 09:12:57;;;;;;;0.20;0.20;;;16.80;95.40;;;;;;5056717;28;20108;-73
2023/04/15 09:15:25;;;;;;;8.68;0.85;;;16.90;96.10;;;;;;5056978;28;20072;-74
2023/04/15 09:17:50;;;;;;;0.95;0.95;;;16.60;96.10;;;;;;5053682;28;20036;-74
2023/04/15 09:20:19;;;;;;;3.63;2.42;;;16.80;95.80;;;;;;5056129;28;20075;-74
2023/04/15 09:22:46;;;;;;;0.20;0.20;;;17.00;96.00;;;;;;5054452;28;20389;-73
2023/04/15 09:25:21;;;;;;;0.35;0.35;;;17.00;96.00;;;;;;5057888;28;20028;-73
2023/04/15 09:28:00;;;;;;;1.05;0.68;;;17.20;96.90;;;;;;5055419;28;20025;-74
2023/04/15 09:30:29;;;;;;;1.95;0.75;;;17.20;96.40;;;;;;5054702;28;20082;-74
2023/04/15 09:32:58;;;;;;;0.25;0.25;;;16.80;95.70;;;;;;5057140;28;20078;-73
2023/04/15 09:35:26;;;;;;;0.60;0.60;;;16.70;96.20;;;;;;5059537;28;20032;-73
2023/04/15 09:38:00;;;;;;;0.20;0.20;;;16.90;95.80;;;;;;5056016;28;20037;-74
2023/04/15 09:40:35;;;;;;;1.00;0.45;;;17.30;95.60;;;;;;5056015;28;20048;-74
2023/04/15 09:43:05;;;;;;;1.58;0.50;;;17.60;95.10;;;;;;5057896;28;20036;-74
2023/04/15 09:45:32;;;;;;;0.38;0.38;;;17.10;94.90;;;;;;5054084;28;20032;-73
2023/04/15 09:47:59;;;;;;;0.20;0.10;;;16.80;93.70;;;;;;5058299;28;20037;-74
2023/04/15 09:50:28;;;;;;;10.45;1.70;;;16.80;93.80;;;;;;5056343;28;20075;-75
2023/04/15 09:52:55;;;;;;;0.65;0.65;;;16.70;92.90;;;;;;5072334;28;20021;-75
2023/04/15 09:55:21;;;;;;;0.52;0.50;;;16.70;93.50;;;;;;5071264;28;20250;-74
2023/04/15 09:57:47;;;;;;;4.88;1.30;;;16.90;92.90;;;;;;5072512;28;20389;-74
2023/04/15 10:00:13;;;;;;;8.38;0.60;;;16.90;93.30;;;;;;5072214;28;20037;-75
2023/04/15 10:02:41;;;;;;;0.63;0.63;;;16.90;93.10;;;;;;5058099;28;20400;-74
2023/04/15 10:05:10;;;;;;;0.47;0.47;;;17.00;93.30;;;;;;5046215;28;20119;-75
2023/04/15 10:07:39;;;;;;;8.88;1.38;;;17.00;92.90;;;;;;5055559;28;20572;-75
2023/04/15 10:10:06;;;;;;;0.98;0.95;;;17.20;93.30;;;;;;5054718;28;20044;-74
2023/04/15 10:12:32;;;;;;;2.28;1.50;;;17.30;94.00;;;;;;5054140;28;20017;-75
2023/04/15 10:15:03;;;;;;;0.40;0.40;;;17.20;93.90;;;;;;5057579;28;20082;-75
2023/04/15 10:17:34;;;;;;;1.48;1.30;;;17.70;94.20;;;;;;5063260;28;20499;-74
2023/04/15 10:20:01;;;;;;;1.33;0.50;;;17.80;95.10;;;;;;5057427;28;20432;-74
2023/04/15 10:22:27;;;;;;;0.20;0.20;;;17.80;93.50;;;;;;5055088;28;20045;-75
2023/04/15 10:24:58;;;;;;;0.52;0.52;;;17.80;94.00;;;;;;5056807;28;20118;-75
2023/04/15 10:27:25;;;;;;;0.10;0.10;;;17.90;94.50;;;;;;5067088;28;20078;-75
2023/04/15 10:29:51;;;;;;;0.00;0.00;;;18.20;92.60;;;;;;5058714;28;20021;-75
2023/04/15 10:32:20;;;;;;;0.20;0.20;;;18.20;91.80;;;;;;5055642;28;20033;-73
2023/04/15 10:34:47;;;;;;;0.75;0.65;;;18.20;89.10;;;;;;5055562;28;20016;-74
2023/04/15 10:37:32;;;;;;;0.00;0.00;;;17.80;88.30;;;;;;5067419;28;20152;-75
2023/04/15 10:39:58;;;;;;;0.00;0.00;;;17.70;88.70;;;;;;5060033;28;20041;-75
2023/04/15 10:42:33;;;;;;;3.10;0.50;;;17.90;89.30;;;;;;5058678;28;21458;-74
2023/04/15 10:44:59;;;;;;;0.63;0.63;;;18.00;88.90;;;;;;5053038;28;20086;-74
2023/04/15 10:47:25;;;;;;;1.25;0.68;;;18.30;90.90;;;;;;5061186;28;20028;-74
2023/04/15 10:49:59;;;;;;;0.60;0.60;;;18.40;90.70;;;;;;5064506;28;20035;-75
2023/04/15 10:52:27;;;;;;;1.58;1.05;;;18.20;90.70;;;;;;5064015;28;20024;-75
2023/04/15 10:55:11;;;;;;;0.88;0.77;;;18.30;90.20;;;;;;5060835;28;20051;-74
2023/04/15 10:57:39;;;;;;;1.00;0.75;;;18.30;90.30;;;;;;5044671;28;20087;-74
2023/04/15 11:00:08;;;;;;;0.15;0.15;;;18.40;90.50;;;;;;5052164;28;20136;-73
2023/04/15 11:02:46;;;;;;;0.10;0.10;;;18.30;89.80;;;;;;5066621;28;20035;-75
2023/04/15 11:05:17;;;;;;;0.32;0.30;;;18.60;90.80;;;;;;5063254;28;20404;-74
2023/04/15 11:07:45;;;;;;;1.13;0.80;;;18.80;89.20;;;;;;5054540;28;20033;-75
2023/04/15 11:10:17;;;;;;;0.20;0.20;;;18.70;87.50;;;;;;5050941;28;20025;-74
2023/04/15 11:12:50;;;;;;;0.50;0.50;;;18.90;87.20;;;;;;5053806;28;20567;-73
2023/04/15 11:15:32;;;;;;;0.22;0.22;;;18.80;86.10;;;;;;5056581;28;20500;-75
2023/04/15 11:18:07;;;;;;;0.20;0.10;;;18.90;84.90;;;;;;5059885;28;20458;-75
2023/04/15 11:20:34;;;;;;;0.47;0.47;;;19.20;87.50;;;;;;5090326;28;20032;-73
2023/04/15 11:22:59;;;;;;;1.27;1.17;;;19.30;87.40;;;;;;5051622;28;20024;-74
2023/04/15 11:25:28;;;;;;;0.35;0.35;;;19.60;87.10;;;;;;5060620;28;20032;-74
2023/04/15 11:27:54;;;;;;;1.88;1.77;;;19.60;87.10;;;;;;5062258;28;20448;-73
2023/04/15 11:30:23;;;;;;;0.63;0.57;;;19.90;89.90;;;;;;5058968;28;20420;-75
2023/04/15 11:32:54;;;;;;;0.22;0.13;;;19.80;89.80;;;;;;5038940;28;20237;-74
2023/04/15 11:35:20;;;;;;;0.20;0.20;;;20.10;88.20;;;;;;5083788;28;20025;-75
2023/04/15 11:37:49;;;;;;;0.60;0.60;;;19.90;88.90;;;;;;5061532;28;20024;-74
2023/04/15 11:40:18;;;;;;;0.95;0.80;;;19.40;85.10;;;;;;5057649;28;20032;-73
2023/04/15 11:42:44;;;;;;;0.45;0.38;;;19.20;86.80;;;;;;5050451;28;20187;-75
2023/04/15 11:45:13;;;;;;;0.30;0.30;;;19.60;89.30;;;;;;5055833;28;20122;-72
2023/04/15 11:47:40;;;;;;;0.00;0.00;;;19.50;87.80;;;;;;5066391;28;20409;-75
2023/04/15 11:50:21;;;;;;;0.10;0.10;;;19.60;87.60;;;;;;5066724;28;20032;-72
2023/04/15 11:52:54;;;;;;;17.83;1.67;;;19.90;87.30;;;;;;5052939;28;20033;-73
2023/04/15 11:55:20;;;;;;;1.20;0.80;;;19.50;85.70;;;;;;5074652;28;20024;-73
2023/04/15 11:57:46;;;;;;;0.43;0.43;;;19.50;84.90;;;;;;5074349;28;20047;-73
2023/04/15 12:00:12;;;;;;;0.10;0.10;;;19.50;87.10;;;;;;5074542;28;20035;-73
2023/04/15 12:02:38;;;;;;;0.17;0.17;;;19.80;87.50;;;;;;5074600;28;20029;-74
2023/04/15 12:05:07;;;;;;;0.35;0.25;;;20.00;85.80;;;;;;5074486;28;20358;-74
2023/04/15 12:07:33;;;;;;;0.70;0.40;;;19.90;85.00;;;;;;5074348;28;20029;-74
2023/04/15 12:09:59;;;;;;;0.20;0.20;;;20.10;83.70;;;;;;5074581;28;20024;-72
2023/04/15 12:12:28;;;;;;;0.10;0.10;;;20.00;85.00;;;;;;5074190;28;20032;-74
2023/04/15 12:14:55;;;;;;;0.30;0.30;;;20.10;86.20;;;;;;5064984;28;20451;-73
2023/04/15 12:17:23;;;;;;;0.10;0.10;;;20.40;83.50;;;;;;5074244;28;20027;-74
2023/04/15 12:19:55;;;;;;;0.25;0.25;;;20.70;83.50;;;;;;5073938;28;20485;-74
2023/04/15 12:22:21;;;;;;;1.75;0.35;;;20.90;82.10;;;;;;5073907;28;20430;-75
2023/04/15 12:24:53;;;;;;;0.68;0.50;;;20.90;84.30;;;;;;5073091;28;20112;-72
2023/04/15 12:27:18;;;;;;;0.45;0.45;;;20.50;83.70;;;;;;5071779;28;20380;-75
2023/04/15 12:29:44;;;;;;;0.22;0.20;;;20.50;84.10;;;;;;5058273;28;20029;-73
2023/04/15 12:32:14;;;;;;;0.55;0.55;;;20.70;84.80;;;;;;5039599;28;20036;-74
2023/04/15 12:34:40;;;;;;;0.10;0.10;;;20.90;82.70;;;;;;5056940;28;20020;-75
2023/04/15 12:37:08;;;;;;;0.25;0.25;;;21.30;83.70;;;;;;5067666;28;20104;-74
2023/04/15 12:39:38;;;;;;;0.93;0.60;;;21.50;83.70;;;;;;5061633;28;20025;-74
2023/04/15 12:42:05;;;;;;;0.03;0.03;;;21.70;82.40;;;;;;5054943;28;20481;-75
2023/04/15 12:44:32;;;;;;;0.75;0.75;;;21.50;83.20;;;;;;5028176;28;20037;-73
2023/04/15 12:46:58;;;;;;;0.63;0.40;;;21.50;82.50;;;;;;5058691;28;20036;-75